Time;durP1;ratioP1;P1;durP2;ratioP2;P2;SDS_P1;SDS_P2;PMS_P1;PMS_P2;Temp;Humidity;BMP_temperature;BMP_pressure;BME280_temperature;BME280_humidity;BME280_pressure;Samples;Min_cycle;Max_cycle;Signal;HPM_P1;HPM_P2
2021/08/06 00:48:59;;;;;;;13.03;11.83;;;15.60;99.90;;;-147.95;100.00;61948.03;4921481;29;20476;-85
2021/08/06 00:51:27;;;;;;;12.50;11.20;;;15.50;99.90;;;-147.95;100.00;61948.03;4932994;29;20523;-85
2021/08/06 00:53:55;;;;;;;12.00;11.00;;;15.50;99.90;;;-147.95;100.00;61948.03;4933116;29;20524;-85
2021/08/06 00:56:22;;;;;;;10.60;9.50;;;15.50;99.90;;;-147.95;100.00;61948.03;4928231;29;20581;-85
2021/08/06 00:58:49;;;;;;;10.50;9.60;;;15.60;99.90;;;-147.95;100.00;61948.03;4926013;29;20460;-87
2021/08/06 01:01:16;;;;;;;10.87;9.83;;;15.60;99.90;;;-147.95;100.00;61948.03;4920032;29;20476;-86
2021/08/06 01:08:00;;;;;;;9.70;8.80;;;15.50;99.90;;;-147.95;100.00;61948.03;4898576;29;20456;-85
2021/08/06 01:10:50;;;;;;;8.97;8.23;;;15.60;99.90;;;-147.95;100.00;61948.03;4913081;29;20562;-86
2021/08/06 01:13:44;;;;;;;8.43;7.77;;;15.60;99.90;;;-147.95;100.00;61948.03;4903028;29;20474;-86
2021/08/06 01:31:54;;;;;;;10.67;8.83;;;15.70;99.90;;;-147.95;100.00;61948.03;4967744;23;20545;-86
2021/08/06 01:34:21;;;;;;;8.83;7.93;;;15.70;99.90;;;-147.95;100.00;61948.03;4955276;28;20776;-86
2021/08/06 01:36:50;;;;;;;8.03;7.33;;;15.70;99.90;;;-147.95;100.00;61948.03;4963217;28;20986;-86
2021/08/06 01:39:19;;;;;;;7.47;6.90;;;15.80;99.90;;;-147.95;100.00;61948.03;4941132;28;20446;-87
2021/08/06 01:41:58;;;;;;;8.07;7.30;;;15.80;99.90;;;-147.95;100.00;61948.03;4963824;28;20472;-86
2021/08/06 01:44:32;;;;;;;8.07;7.20;;;15.80;99.90;;;-147.95;100.00;61948.03;4948822;28;20464;-86
2021/08/06 01:47:10;;;;;;;8.40;7.63;;;15.80;99.90;;;-147.95;100.00;61948.03;4948518;29;20461;-85
2021/08/06 01:49:43;;;;;;;8.53;7.87;;;15.70;99.90;;;-147.95;100.00;61948.03;4955988;28;20454;-85
2021/08/06 01:52:15;;;;;;;8.20;7.20;;;15.70;99.90;;;-147.95;100.00;61948.03;4948102;28;20453;-86
2021/08/06 01:54:45;;;;;;;9.80;7.50;;;15.60;99.90;;;-147.95;100.00;61948.03;4962538;28;20544;-86
2021/08/06 01:57:15;;;;;;;7.83;7.10;;;15.70;99.90;;;-147.95;100.00;61948.03;4960302;28;20458;-86
2021/08/06 01:59:45;;;;;;;7.03;6.47;;;15.60;99.90;;;-147.95;100.00;61948.03;4952472;28;20457;-86
2021/08/06 02:02:13;;;;;;;8.20;7.40;;;15.60;99.90;;;-147.95;100.00;61948.03;4961470;28;20478;-86
2021/08/06 02:04:41;;;;;;;7.00;6.40;;;15.70;99.90;;;-147.95;100.00;61948.03;4967817;28;20457;-86
2021/08/06 02:07:10;;;;;;;8.57;7.67;;;15.70;99.90;;;-147.95;100.00;61948.03;4973135;28;20473;-86
2021/08/06 02:09:40;;;;;;;7.20;6.70;;;15.70;99.90;;;-147.95;100.00;61948.03;4963707;28;20975;-86
2021/08/06 02:12:08;;;;;;;6.67;6.17;;;15.70;99.90;;;-147.95;100.00;61948.03;4946406;28;20540;-86
2021/08/06 02:14:37;;;;;;;7.20;6.50;;;15.60;99.90;;;-147.95;100.00;61948.03;4960334;28;20465;-86
2021/08/06 02:17:05;;;;;;;6.23;5.73;;;15.70;99.90;;;-147.95;100.00;61948.03;4962752;28;20546;-86
2021/08/06 02:19:34;;;;;;;6.27;4.97;;;15.70;99.90;;;-147.95;100.00;61948.03;4972568;28;20552;-87
2021/08/06 02:22:04;;;;;;;4.90;4.60;;;15.70;99.90;;;-147.95;100.00;61948.03;4949718;28;20476;-86
2021/08/06 02:24:33;;;;;;;6.33;5.40;;;15.50;99.90;;;-147.95;100.00;61948.03;4944829;28;20461;-86
2021/08/06 02:27:02;;;;;;;7.37;5.20;;;15.50;99.90;;;-147.95;100.00;61948.03;4943734;28;20536;-87
2021/08/06 02:29:31;;;;;;;8.13;5.53;;;15.60;99.90;;;-147.95;100.00;61948.03;4948546;29;20474;-87
2021/08/06 02:32:01;;;;;;;5.30;4.90;;;15.60;99.90;;;-147.95;100.00;61948.03;4940728;28;20556;-86
2021/08/06 02:34:30;;;;;;;5.73;5.20;;;15.60;99.90;;;-147.95;100.00;61948.03;4958450;28;20488;-87
2021/08/06 02:36:58;;;;;;;7.40;5.70;;;15.50;99.90;;;-147.95;100.00;61948.03;4961510;28;20481;-87
2021/08/06 02:39:31;;;;;;;6.70;6.00;;;15.60;99.90;;;-147.95;100.00;61948.03;4976815;28;20452;-87
2021/08/06 02:42:01;;;;;;;5.97;5.47;;;15.50;99.90;;;-147.95;100.00;61948.03;4959597;28;20899;-86
2021/08/06 02:44:29;;;;;;;6.97;6.37;;;15.50;99.90;;;-147.95;100.00;61948.03;4961586;28;20836;-87
2021/08/06 02:46:57;;;;;;;6.73;5.90;;;15.50;99.90;;;-147.95;100.00;61948.03;4980274;28;20489;-86
2021/08/06 02:49:31;;;;;;;6.03;5.37;;;15.50;99.90;;;-147.95;100.00;61948.03;4979452;28;20483;-86
2021/08/06 02:51:59;;;;;;;5.93;5.40;;;15.40;99.90;;;-147.95;100.00;61948.03;4972540;28;20460;-86
2021/08/06 02:54:26;;;;;;;6.37;5.50;;;15.40;99.90;;;-147.95;100.00;61948.03;4972152;28;20453;-86
2021/08/06 02:56:54;;;;;;;6.20;5.40;;;15.40;99.90;;;-147.95;100.00;61948.03;4976983;28;20471;-87
2021/08/06 02:59:20;;;;;;;6.40;5.90;;;15.40;99.90;;;-147.95;100.00;61948.03;4989694;28;20517;-86
2021/08/06 03:01:48;;;;;;;6.60;6.00;;;15.40;99.90;;;-147.95;100.00;61948.03;4992774;28;20504;-86
2021/08/06 03:04:15;;;;;;;7.10;6.10;;;15.30;99.90;;;-147.95;100.00;61948.03;4986208;28;20445;-86
2021/08/06 03:06:51;;;;;;;6.10;5.63;;;15.30;99.90;;;-147.95;100.00;61948.03;4962043;29;20485;-86
2021/08/06 03:09:18;;;;;;;6.07;5.60;;;15.20;99.90;;;-147.95;100.00;61948.03;4951618;28;20450;-86
2021/08/06 03:11:45;;;;;;;6.30;5.80;;;15.10;99.90;;;-147.95;100.00;61948.03;4968610;28;20461;-86
2021/08/06 03:14:12;;;;;;;7.00;5.90;;;15.10;99.90;;;-147.95;100.00;61948.03;4978841;28;20521;-86
2021/08/06 03:16:40;;;;;;;5.77;5.37;;;15.10;99.90;;;-147.95;100.00;61948.03;4975430;28;20514;-87
2021/08/06 03:19:07;;;;;;;6.50;6.00;;;15.00;99.90;;;-147.95;100.00;61948.03;4972382;28;20819;-87
2021/08/06 03:21:35;;;;;;;6.43;5.83;;;15.10;99.90;;;-147.95;100.00;61948.03;4950649;28;20909;-88
2021/08/06 03:24:06;;;;;;;6.57;6.07;;;15.10;99.90;;;-147.95;100.00;61948.03;4946511;28;20480;-87
2021/08/06 03:26:33;;;;;;;6.43;5.93;;;15.20;99.90;;;-147.95;100.00;61948.03;4960065;28;20457;-86
2021/08/06 03:29:01;;;;;;;6.80;6.30;;;15.20;99.90;;;-147.95;100.00;61948.03;4962139;28;20453;-87
2021/08/06 03:31:28;;;;;;;8.20;6.60;;;15.20;99.90;;;-147.95;100.00;61948.03;4987703;28;20446;-87
2021/08/06 03:33:55;;;;;;;5.93;5.43;;;15.20;99.90;;;-147.95;100.00;61948.03;4970390;28;20678;-87
2021/08/06 03:36:22;;;;;;;6.30;5.80;;;15.20;99.90;;;-147.95;100.00;61948.03;4978205;28;20577;-87
2021/08/06 03:38:53;;;;;;;6.37;5.77;;;15.30;99.90;;;-147.95;100.00;61948.03;4963056;28;20480;-86
2021/08/06 03:41:21;;;;;;;6.50;5.90;;;15.30;99.90;;;-147.95;100.00;61948.03;4970743;28;20494;-87
2021/08/06 03:43:49;;;;;;;6.60;5.93;;;15.40;99.90;;;-147.95;100.00;61948.03;4978023;28;20469;-87
2021/08/06 03:46:18;;;;;;;5.13;4.73;;;15.30;99.90;;;-147.95;100.00;61948.03;4972010;28;20487;-87
2021/08/06 03:48:46;;;;;;;5.83;5.33;;;15.50;99.90;;;-147.95;100.00;61948.03;4945058;29;20455;-87
2021/08/06 03:51:16;;;;;;;5.23;4.80;;;15.40;99.90;;;-147.95;100.00;61948.03;4972802;28;20569;-87
2021/08/06 03:53:43;;;;;;;5.60;5.20;;;15.40;99.90;;;-147.95;100.00;61948.03;4977551;28;20461;-87
2021/08/06 03:56:12;;;;;;;10.03;5.70;;;15.50;99.90;;;-147.95;100.00;61948.03;4974351;28;20453;-87
2021/08/06 03:58:41;;;;;;;5.70;5.17;;;15.50;99.90;;;-147.95;100.00;61948.03;4949326;28;20546;-87
2021/08/06 04:01:09;;;;;;;5.33;4.93;;;15.50;99.90;;;-147.95;100.00;61948.03;4963939;28;20517;-86
2021/08/06 04:03:36;;;;;;;5.00;4.60;;;15.40;99.90;;;-147.95;100.00;61948.03;4945890;29;20458;-86
2021/08/06 04:06:03;;;;;;;5.10;4.70;;;15.40;99.90;;;-147.95;100.00;61948.03;4968073;28;20498;-86
2021/08/06 04:08:31;;;;;;;5.57;5.07;;;15.30;99.90;;;-147.95;100.00;61948.03;4971162;28;21018;-86
2021/08/06 04:10:59;;;;;;;5.10;4.60;;;15.30;99.90;;;-147.95;100.00;61948.03;4974669;28;20561;-86
2021/08/06 04:13:26;;;;;;;5.47;4.80;;;15.20;99.90;;;-147.95;100.00;61948.03;4987357;28;20429;-86
2021/08/06 04:15:56;;;;;;;4.67;4.20;;;15.20;99.90;;;-147.95;100.00;61948.03;4973715;28;21017;-87
2021/08/06 04:18:23;;;;;;;10.70;4.20;;;15.20;99.90;;;-147.95;100.00;61948.03;4967133;28;20453;-87
2021/08/06 04:20:50;;;;;;;4.80;3.90;;;15.20;99.90;;;-147.95;100.00;61948.03;4977513;28;20497;-87
2021/08/06 04:23:17;;;;;;;4.67;4.27;;;15.10;99.90;;;-147.95;100.00;61948.03;4977581;28;20478;-87
2021/08/06 04:25:44;;;;;;;5.27;4.70;;;15.10;99.90;;;-147.95;100.00;61948.03;4956236;28;20547;-87
2021/08/06 04:28:11;;;;;;;5.43;4.33;;;15.10;99.90;;;-147.95;100.00;61948.03;4957708;29;20473;-87
2021/08/06 04:30:38;;;;;;;3.70;3.50;;;15.00;99.90;;;-147.95;100.00;61948.03;4980645;28;20513;-87
2021/08/06 04:33:07;;;;;;;4.47;4.17;;;15.10;99.90;;;-147.95;100.00;61948.03;4992268;28;20517;-87
2021/08/06 04:35:34;;;;;;;5.13;4.67;;;15.10;99.90;;;-147.95;100.00;61948.03;4973783;28;20468;-87
2021/08/06 04:38:01;;;;;;;4.87;4.47;;;14.90;99.90;;;-147.95;100.00;61948.03;4981039;28;20477;-87
2021/08/06 04:40:29;;;;;;;4.80;4.40;;;15.00;99.90;;;-147.95;100.00;61948.03;4985207;28;20460;-88
2021/08/06 04:42:56;;;;;;;6.70;5.27;;;15.00;99.90;;;-147.95;100.00;61948.03;4990230;28;20442;-88
2021/08/06 04:45:24;;;;;;;9.00;5.13;;;15.10;99.90;;;-147.95;100.00;61948.03;4988311;28;20454;-88
2021/08/06 04:47:54;;;;;;;5.40;5.00;;;15.00;99.90;;;-147.95;100.00;61948.03;4976941;28;20465;-87
2021/08/06 04:50:25;;;;;;;6.50;6.00;;;15.30;99.90;;;-147.95;100.00;61948.03;4968584;28;20445;-87
2021/08/06 04:52:52;;;;;;;5.90;5.40;;;15.70;99.90;;;-147.95;100.00;61948.03;4986930;28;20462;-88
2021/08/06 04:55:20;;;;;;;5.37;4.80;;;16.20;99.90;;;-147.95;100.00;61948.03;4988225;28;20457;-88
2021/08/06 04:57:54;;;;;;;5.40;4.57;;;16.80;99.90;;;-147.95;100.00;61948.03;4971528;28;20442;-88
2021/08/06 05:00:22;;;;;;;4.70;4.30;;;17.60;99.90;;;-147.95;100.00;61948.03;4981367;28;20510;-87
2021/08/06 05:02:50;;;;;;;5.23;4.83;;;18.50;99.90;;;-147.95;100.00;61948.03;4989880;28;20541;-86
2021/08/06 05:05:17;;;;;;;3.73;3.43;;;19.00;99.90;;;-147.95;100.00;61948.03;4985333;28;20496;-86
2021/08/06 05:07:51;;;;;;;4.47;4.00;;;19.40;99.90;;;-147.95;100.00;61948.03;4965061;28;20462;-86
2021/08/06 05:10:21;;;;;;;5.40;4.10;;;19.50;99.90;;;-147.95;100.00;61948.03;4960388;29;20445;-86
2021/08/06 05:12:48;;;;;;;4.40;4.00;;;19.90;99.90;;;-147.95;100.00;61948.03;4955424;28;20441;-86
2021/08/06 05:15:16;;;;;;;4.10;3.50;;;20.10;99.90;;;-147.95;100.00;61948.03;4970345;28;20525;-87
2021/08/06 05:17:45;;;;;;;4.17;3.00;;;20.10;98.00;;;-147.95;100.00;61948.03;4968516;28;20535;-86
2021/08/06 05:20:14;;;;;;;3.80;3.07;;;20.40;94.90;;;-147.95;100.00;61948.03;4974100;28;20529;-87
2021/08/06 05:22:41;;;;;;;3.60;2.67;;;20.60;93.70;;;-147.95;100.00;61948.03;4980460;28;20493;-86
2021/08/06 05:25:12;;;;;;;5.57;2.70;;;21.00;92.40;;;-147.95;100.00;61948.03;4978922;28;20462;-87
2021/08/06 05:27:43;;;;;;;2.50;2.30;;;21.30;91.30;;;-147.95;100.00;61948.03;4988268;28;20471;-87
2021/08/06 05:30:11;;;;;;;3.10;2.60;;;21.40;89.40;;;-147.95;100.00;61948.03;4964525;28;20517;-86
2021/08/06 05:32:39;;;;;;;2.73;2.43;;;21.60;86.90;;;-147.95;100.00;61948.03;4962907;28;20458;-87
2021/08/06 05:35:06;;;;;;;3.80;2.93;;;21.60;84.90;;;-147.95;100.00;61948.03;4970643;28;20445;-86
2021/08/06 05:37:33;;;;;;;5.53;2.73;;;21.90;82.10;;;-147.95;100.00;61948.03;4983299;28;20706;-86
2021/08/06 05:40:00;;;;;;;3.00;2.67;;;21.90;77.10;;;-147.95;100.00;61948.03;4988159;28;20484;-86
2021/08/06 05:42:29;;;;;;;2.70;2.50;;;21.70;77.00;;;-147.95;100.00;61948.03;4954012;28;20469;-87
2021/08/06 05:44:56;;;;;;;2.60;2.40;;;21.80;76.10;;;-147.95;100.00;61948.03;4992440;28;20477;-87
2021/08/06 05:47:23;;;;;;;5.73;2.50;;;22.00;76.10;;;-147.95;100.00;61948.03;4983487;28;20449;-87
2021/08/06 05:49:50;;;;;;;3.20;2.50;;;22.10;73.50;;;-147.95;100.00;61948.03;4982585;28;20509;-87
2021/08/06 05:52:17;;;;;;;2.43;2.23;;;22.10;73.90;;;-147.95;100.00;61948.03;4980183;28;20901;-87
2021/08/06 05:54:45;;;;;;;2.83;2.63;;;22.00;74.00;;;-147.95;100.00;61948.03;4972446;28;20446;-87
2021/08/06 05:57:12;;;;;;;3.13;2.60;;;21.40;73.00;;;-147.95;100.00;61948.03;4967989;28;20544;-87
2021/08/06 05:59:40;;;;;;;2.93;2.73;;;20.90;75.60;;;-147.95;100.00;61948.03;4981754;28;20481;-87
2021/08/06 06:02:07;;;;;;;2.90;2.70;;;20.50;77.10;;;-147.95;100.00;61948.03;4977404;28;20545;-87
2021/08/06 06:04:34;;;;;;;3.53;3.33;;;19.80;78.60;;;-147.95;100.00;61948.03;4980009;28;20456;-87
2021/08/06 06:07:02;;;;;;;3.90;2.90;;;19.80;82.40;;;-147.95;100.00;61948.03;4965513;28;20462;-87
2021/08/06 06:09:30;;;;;;;4.67;2.70;;;19.70;82.90;;;-147.95;100.00;61948.03;4994459;28;20460;-86
2021/08/06 06:11:57;;;;;;;2.93;2.73;;;20.10;81.80;;;-147.95;100.00;61948.03;4966752;28;20490;-87
2021/08/06 06:14:25;;;;;;;3.60;2.90;;;20.10;80.50;;;-147.95;100.00;61948.03;4968449;28;20536;-87
2021/08/06 06:16:53;;;;;;;4.87;2.43;;;19.90;81.80;;;-147.95;100.00;61948.03;4965851;28;20449;-86
2021/08/06 06:19:20;;;;;;;2.90;2.63;;;19.60;81.10;;;-147.95;100.00;61948.03;4974838;28;20464;-86
2021/08/06 06:21:48;;;;;;;5.40;2.77;;;19.40;82.10;;;-147.95;100.00;61948.03;4973135;28;20473;-87
2021/08/06 06:24:15;;;;;;;9.90;2.73;;;19.40;82.80;;;-147.95;100.00;61948.03;4968785;28;20547;-86
2021/08/06 06:26:42;;;;;;;3.90;3.50;;;19.50;83.90;;;-147.95;100.00;61948.03;4989116;28;20489;-86
2021/08/06 06:29:09;;;;;;;3.57;2.83;;;19.70;82.80;;;-147.95;100.00;61948.03;4987235;28;20538;-85
2021/08/06 06:31:37;;;;;;;3.00;2.80;;;19.70;80.30;;;-147.95;100.00;61948.03;4973263;28;20457;-81
2021/08/06 06:34:05;;;;;;;4.23;2.87;;;19.60;79.80;;;-147.95;100.00;61948.03;4968895;28;20849;-81
2021/08/06 06:36:32;;;;;;;7.93;3.43;;;19.50;80.70;;;-147.95;100.00;61948.03;4964120;28;20466;-79
2021/08/06 06:38:59;;;;;;;3.70;2.40;;;19.70;81.00;;;-147.95;100.00;61948.03;4977520;28;20454;-81
2021/08/06 06:41:26;;;;;;;2.60;2.40;;;19.80;81.10;;;-147.95;100.00;61948.03;4987106;28;20536;-83
2021/08/06 06:43:53;;;;;;;4.13;2.23;;;19.90;80.00;;;-147.95;100.00;61948.03;4978138;28;20543;-80
2021/08/06 06:46:20;;;;;;;3.00;2.80;;;20.00;80.50;;;-147.95;100.00;61948.03;4974504;28;20458;-81
2021/08/06 06:48:47;;;;;;;2.70;2.43;;;20.10;79.70;;;-147.95;100.00;61948.03;4972995;28;20452;-80
2021/08/06 06:51:16;;;;;;;4.47;2.20;;;20.00;77.90;;;-147.95;100.00;61948.03;4974333;28;20537;-82
2021/08/06 06:53:42;;;;;;;5.47;2.83;;;20.00;78.70;;;-147.95;100.00;61948.03;4973799;28;20494;-81
2021/08/06 06:56:10;;;;;;;3.33;2.73;;;19.90;78.60;;;-147.95;100.00;61948.03;4971179;28;20477;-79
2021/08/06 06:58:36;;;;;;;2.50;2.30;;;19.70;77.20;;;-147.95;100.00;61948.03;4948430;28;21008;-83
2021/08/06 07:01:03;;;;;;;3.10;2.80;;;19.60;78.90;;;-147.95;100.00;61948.03;4962430;28;20536;-80
2021/08/06 07:03:30;;;;;;;3.17;2.60;;;19.70;80.10;;;-147.95;100.00;61948.03;4961689;28;20536;-82
2021/08/06 07:05:57;;;;;;;2.80;2.50;;;19.80;80.30;;;-147.95;100.00;61948.03;4973837;28;20826;-89
2021/08/06 07:08:33;;;;;;;3.30;2.63;;;19.80;79.30;;;-147.95;100.00;61948.03;4969127;28;20483;-88
2021/08/06 07:11:03;;;;;;;10.33;2.90;;;19.90;80.50;;;-147.95;100.00;61948.03;4961139;28;20465;-88
2021/08/06 07:13:30;;;;;;;2.70;2.20;;;20.10;79.10;;;-147.95;100.00;61948.03;4976719;28;20521;-86
2021/08/06 07:15:57;;;;;;;6.33;2.20;;;20.10;78.70;;;-147.95;100.00;61948.03;4974436;28;20450;-86
2021/08/06 07:18:26;;;;;;;2.70;2.47;;;20.20;77.20;;;-147.95;100.00;61948.03;4957993;28;20943;-86
2021/08/06 07:20:53;;;;;;;3.00;2.30;;;20.20;77.70;;;-147.95;100.00;61948.03;4969475;28;20511;-86
2021/08/06 07:23:20;;;;;;;8.40;2.20;;;20.20;77.60;;;-147.95;100.00;61948.03;4966536;28;20478;-87
2021/08/06 07:25:49;;;;;;;4.33;1.80;;;20.00;75.50;;;-147.95;100.00;61948.03;4970856;28;20536;-86
2021/08/06 07:28:16;;;;;;;2.40;2.20;;;20.00;76.30;;;-147.95;100.00;61948.03;4967779;28;20944;-86
2021/08/06 07:30:43;;;;;;;2.13;2.00;;;20.00;76.20;;;-147.95;100.00;61948.03;4971150;28;20547;-87
2021/08/06 07:33:11;;;;;;;2.80;2.50;;;20.10;77.00;;;-147.95;100.00;61948.03;4954687;28;21030;-87
2021/08/06 07:35:39;;;;;;;3.80;1.70;;;20.00;74.80;;;-147.95;100.00;61948.03;4951194;28;20463;-84
2021/08/06 07:38:06;;;;;;;4.33;2.20;;;20.00;75.40;;;-147.95;100.00;61948.03;4971913;28;20531;-83
2021/08/06 07:40:33;;;;;;;4.60;3.20;;;20.00;75.50;;;-147.95;100.00;61948.03;4980198;28;20549;-84
2021/08/06 07:43:03;;;;;;;6.60;2.30;;;20.20;76.50;;;-147.95;100.00;61948.03;4968201;28;20477;-85
2021/08/06 07:45:30;;;;;;;3.70;2.43;;;20.10;75.10;;;-147.95;100.00;61948.03;4990051;28;20454;-86
2021/08/06 07:47:57;;;;;;;2.77;2.50;;;20.10;75.70;;;-147.95;100.00;61948.03;4976297;28;20985;-84
2021/08/06 07:50:24;;;;;;;2.93;2.27;;;20.10;75.70;;;-147.95;100.00;61948.03;4972923;28;20481;-84
2021/08/06 07:52:51;;;;;;;3.57;2.40;;;20.00;76.10;;;-147.95;100.00;61948.03;4974931;28;20472;-86
2021/08/06 07:55:19;;;;;;;4.97;2.20;;;20.00;77.00;;;-147.95;100.00;61948.03;4968310;28;20548;-85
2021/08/06 07:57:46;;;;;;;3.43;2.50;;;20.00;77.50;;;-147.95;100.00;61948.03;4962142;28;20453;-86
2021/08/06 08:00:18;;;;;;;2.40;2.20;;;19.90;77.50;;;-147.95;100.00;61948.03;4953045;28;20452;-85
2021/08/06 08:02:45;;;;;;;2.80;2.20;;;19.80;78.20;;;-147.95;100.00;61948.03;4961624;28;20489;-85
2021/08/06 08:05:12;;;;;;;2.87;2.17;;;19.60;76.70;;;-147.95;100.00;61948.03;4946424;28;20540;-84
2021/08/06 08:07:39;;;;;;;4.10;2.07;;;19.40;79.30;;;-147.95;100.00;61948.03;4962171;28;20511;-84
2021/08/06 08:10:08;;;;;;;4.33;2.47;;;19.20;78.40;;;-147.95;100.00;61948.03;4970597;28;20871;-84
2021/08/06 08:12:35;;;;;;;4.87;2.60;;;18.90;80.70;;;-147.95;100.00;61948.03;4958536;28;20472;-85
2021/08/06 08:15:02;;;;;;;4.43;2.20;;;18.60;81.50;;;-147.95;100.00;61948.03;4975019;28;20488;-84
2021/08/06 08:17:30;;;;;;;2.67;2.47;;;18.30;83.30;;;-147.95;100.00;61948.03;4961019;28;20478;-84
2021/08/06 08:19:57;;;;;;;2.63;2.43;;;18.00;87.00;;;-147.95;100.00;61948.03;4973431;28;20550;-84
2021/08/06 08:22:25;;;;;;;2.77;2.37;;;17.80;88.50;;;-147.95;100.00;61948.03;4966291;28;21016;-84
2021/08/06 08:24:52;;;;;;;3.57;2.83;;;17.60;90.70;;;-147.95;100.00;61948.03;4972187;28;20462;-83
2021/08/06 08:27:19;;;;;;;2.90;2.70;;;17.50;92.40;;;-147.95;100.00;61948.03;4980260;28;20477;-84
2021/08/06 08:29:47;;;;;;;2.93;2.40;;;17.40;92.70;;;-147.95;100.00;61948.03;4984480;28;20477;-84
2021/08/06 08:32:15;;;;;;;4.10;3.10;;;17.30;92.70;;;-147.95;100.00;61948.03;4974863;28;20997;-86
2021/08/06 08:34:45;;;;;;;3.10;2.83;;;17.20;93.80;;;-147.95;100.00;61948.03;4960185;28;20962;-85
2021/08/06 08:37:13;;;;;;;2.70;2.27;;;17.00;95.10;;;-147.95;100.00;61948.03;4967520;28;20487;-84
2021/08/06 08:39:41;;;;;;;3.60;3.30;;;17.00;95.80;;;-147.95;100.00;61948.03;4964129;28;20450;-85
2021/08/06 08:42:09;;;;;;;4.03;2.90;;;16.90;96.30;;;-147.95;100.00;61948.03;4966571;28;20466;-84
2021/08/06 08:44:40;;;;;;;2.87;2.60;;;16.80;97.10;;;-147.95;100.00;61948.03;4964808;28;20486;-84
2021/08/06 08:47:09;;;;;;;3.57;3.27;;;16.90;97.80;;;-147.95;100.00;61948.03;4978277;28;20537;-85
2021/08/06 08:49:39;;;;;;;3.20;2.90;;;17.10;98.70;;;-147.95;100.00;61948.03;4978432;28;20469;-85
2021/08/06 08:52:11;;;;;;;4.37;4.00;;;17.20;96.50;;;-147.95;100.00;61948.03;4978351;28;20470;-85
2021/08/06 08:54:39;;;;;;;6.10;3.30;;;17.30;96.50;;;-147.95;100.00;61948.03;4966149;28;20516;-78
2021/08/06 08:57:07;;;;;;;3.70;3.30;;;17.50;96.10;;;-147.95;100.00;61948.03;4966983;28;20450;-82
2021/08/06 08:59:34;;;;;;;4.83;4.37;;;17.60;94.70;;;-147.95;100.00;61948.03;4974086;28;20457;-80
2021/08/06 09:02:01;;;;;;;4.87;3.27;;;17.60;94.70;;;-147.95;100.00;61948.03;4970825;28;20449;-80
2021/08/06 09:04:31;;;;;;;3.30;3.10;;;17.60;93.60;;;-147.95;100.00;61948.03;4973791;28;20462;-80
2021/08/06 09:06:59;;;;;;;4.63;3.33;;;17.70;93.10;;;-147.95;100.00;61948.03;4980850;28;20560;-80
2021/08/06 09:09:29;;;;;;;3.80;3.27;;;17.90;93.10;;;-147.95;100.00;61948.03;4980494;28;20981;-81
2021/08/06 09:12:07;;;;;;;3.90;3.13;;;18.00;92.20;;;-147.95;100.00;61948.03;4974258;28;20465;-80
2021/08/06 09:14:36;;;;;;;3.97;3.07;;;18.20;91.50;;;-147.95;100.00;61948.03;4970673;28;20442;-80
2021/08/06 09:17:10;;;;;;;4.43;3.50;;;18.30;91.90;;;-147.95;100.00;61948.03;4943882;28;20516;-83
2021/08/06 09:19:43;;;;;;;3.93;3.30;;;18.40;91.80;;;-147.95;100.00;61948.03;4961823;28;20467;-81
2021/08/06 09:22:20;;;;;;;3.60;3.30;;;18.50;91.60;;;-147.95;100.00;61948.03;4969792;28;20453;-80
2021/08/06 09:25:16;;;;;;;3.30;2.67;;;18.60;91.20;;;-147.95;100.00;61948.03;4970304;28;20492;-80
2021/08/06 09:27:48;;;;;;;4.30;3.07;;;18.50;90.40;;;-147.95;100.00;61948.03;4975077;28;20530;-79
2021/08/06 09:30:39;;;;;;;5.27;3.37;;;18.40;90.80;;;-147.95;100.00;61948.03;4973634;28;20481;-80
2021/08/06 09:33:08;;;;;;;4.80;3.33;;;18.60;90.90;;;-147.95;100.00;61948.03;4970628;28;20490;-81
2021/08/06 09:35:38;;;;;;;3.40;3.10;;;19.00;91.60;;;-147.95;100.00;61948.03;4958679;28;20515;-81
2021/08/06 09:38:07;;;;;;;3.13;2.93;;;19.30;91.00;;;-147.95;100.00;61948.03;4978391;28;20449;-82
2021/08/06 09:40:40;;;;;;;3.60;3.30;;;19.50;90.00;;;-147.95;100.00;61948.03;4975496;28;20454;-81
2021/08/06 09:43:16;;;;;;;3.47;3.17;;;19.80;89.70;;;-147.95;100.00;61948.03;4974646;28;20495;-81
2021/08/06 09:45:43;;;;;;;4.10;3.27;;;20.10;88.40;;;-147.95;100.00;61948.03;4979616;28;20454;-81
2021/08/06 09:48:20;;;;;;;3.17;2.97;;;20.60;86.00;;;-147.95;100.00;61948.03;4969742;28;20477;-81
2021/08/06 09:50:48;;;;;;;5.03;3.13;;;21.00;84.20;;;-147.95;100.00;61948.03;4952957;29;20545;-80
2021/08/06 09:53:18;;;;;;;3.73;2.97;;;21.30;82.20;;;-147.95;100.00;61948.03;4966048;28;20525;-80
2021/08/06 09:55:49;;;;;;;2.97;2.77;;;21.40;80.70;;;-147.95;100.00;61948.03;4977756;28;20466;-79
2021/08/06 09:58:20;;;;;;;4.10;3.70;;;21.60;78.60;;;-147.95;100.00;61948.03;4976536;28;20445;-79
2021/08/06 10:00:50;;;;;;;6.00;3.60;;;21.80;78.80;;;-147.95;100.00;61948.03;4974559;28;20449;-80
2021/08/06 10:03:29;;;;;;;4.30;2.70;;;21.80;77.80;;;-147.95;100.00;61948.03;4973936;28;20880;-85
2021/08/06 10:06:11;;;;;;;3.87;2.97;;;22.20;76.30;;;-147.95;100.00;61948.03;4975264;28;20493;-80
2021/08/06 10:08:40;;;;;;;3.07;2.87;;;22.40;75.30;;;-147.95;100.00;61948.03;4966536;28;20640;-80
2021/08/06 10:11:09;;;;;;;3.10;2.50;;;22.50;74.70;;;-147.95;100.00;61948.03;4941414;28;20525;-80
2021/08/06 10:13:38;;;;;;;3.33;3.03;;;22.40;73.10;;;-147.95;100.00;61948.03;4952830;28;20548;-84
2021/08/06 10:16:06;;;;;;;5.00;2.40;;;22.00;74.00;;;-147.95;100.00;61948.03;4976051;28;20552;-84
2021/08/06 10:18:34;;;;;;;3.20;2.80;;;21.50;74.90;;;-147.95;100.00;61948.03;4967236;28;20457;-84
2021/08/06 10:21:01;;;;;;;3.43;3.13;;;21.00;76.30;;;-147.95;100.00;61948.03;4982207;28;20473;-84
2021/08/06 10:23:31;;;;;;;3.20;3.00;;;20.50;77.40;;;-147.95;100.00;61948.03;4976972;28;20469;-85
2021/08/06 10:26:05;;;;;;;3.00;2.70;;;20.00;79.80;;;-147.95;100.00;61948.03;4956608;28;20473;-86
2021/08/06 10:28:34;;;;;;;4.00;3.40;;;19.60;83.60;;;-147.95;100.00;61948.03;4957860;28;20473;-86
2021/08/06 10:31:18;;;;;;;3.40;3.10;;;19.50;86.60;;;-147.95;100.00;61948.03;4977340;28;20512;-87
2021/08/06 10:34:03;;;;;;;5.87;3.33;;;19.40;87.60;;;-147.95;100.00;61948.03;4974375;28;20449;-85
2021/08/06 10:36:44;;;;;;;3.93;3.53;;;19.40;90.00;;;-147.95;100.00;61948.03;4978749;28;20496;-86
2021/08/06 10:39:52;;;;;;;4.97;3.20;;;19.40;86.80;;;-147.95;100.00;61948.03;4955066;28;20898;-86
2021/08/06 10:42:31;;;;;;;3.03;2.83;;;19.50;84.70;;;-147.95;100.00;61948.03;4900267;29;20452;-86
2021/08/06 10:45:05;;;;;;;2.60;2.37;;;19.50;85.30;;;-147.95;100.00;61948.03;4969131;28;20460;-86
2021/08/06 10:47:55;;;;;;;2.20;2.10;;;19.70;85.30;;;-147.95;100.00;61948.03;4972100;28;20476;-86
2021/08/06 10:50:23;;;;;;;2.00;1.10;;;19.80;82.70;;;-147.95;100.00;61948.03;4973500;28;20461;-86
2021/08/06 10:53:18;;;;;;;1.83;1.50;;;19.10;83.90;;;-147.95;100.00;61948.03;4948638;29;21326;-85
2021/08/06 10:55:46;;;;;;;1.20;1.10;;;18.10;93.00;;;-147.95;100.00;61948.03;4976366;28;20465;-85
2021/08/06 10:58:53;;;;;;;1.73;0.80;;;17.60;93.50;;;-147.95;100.00;61948.03;4979750;28;20730;-85
2021/08/06 11:01:45;;;;;;;3.57;1.07;;;17.10;94.50;;;-147.95;100.00;61948.03;4964728;28;21233;-86
2021/08/06 11:04:47;;;;;;;1.40;0.90;;;17.60;96.00;;;-147.95;100.00;61948.03;4975772;28;20492;-80
2021/08/06 11:07:34;;;;;;;1.93;1.03;;;18.10;93.30;;;-147.95;100.00;61948.03;4954643;28;20468;-81
2021/08/06 11:10:02;;;;;;;2.40;1.30;;;18.70;91.60;;;-147.95;100.00;61948.03;4955743;28;20549;-80
2021/08/06 11:12:34;;;;;;;1.70;1.17;;;19.00;91.40;;;-147.95;100.00;61948.03;4976947;28;20474;-83
2021/08/06 11:15:04;;;;;;;1.53;1.30;;;19.50;88.40;;;-147.95;100.00;61948.03;4978914;28;20485;-82
2021/08/06 11:17:47;;;;;;;1.50;1.40;;;19.90;89.40;;;-147.95;100.00;61948.03;4982499;28;20460;-81
2021/08/06 11:20:19;;;;;;;1.60;1.27;;;20.00;87.30;;;-147.95;100.00;61948.03;4974242;28;20510;-81